createdAt,value
2018-09-28T00:05:14.350Z,18.20
2018-09-28T00:07:42.616Z,21.13
2018-09-28T00:10:10.819Z,19.97
2018-09-28T00:12:39.027Z,18.57
2018-09-28T00:15:07.314Z,21.07
2018-09-28T00:17:35.511Z,19.83
2018-09-28T00:20:03.764Z,18.47
2018-09-28T00:22:31.979Z,19.40
2018-09-28T00:25:00.235Z,19.27
2018-09-28T00:27:28.459Z,19.57
2018-09-28T00:29:56.704Z,18.80
2018-09-28T00:32:25.000Z,18.00
2018-09-28T00:34:53.255Z,18.27
2018-09-28T00:37:21.532Z,20.50
2018-09-28T00:39:49.759Z,17.70
2018-09-28T00:42:17.998Z,20.00
2018-09-28T00:44:46.242Z,19.10
2018-09-28T00:47:14.467Z,20.10
2018-09-28T00:49:42.718Z,20.07
2018-09-28T00:52:10.947Z,20.10
2018-09-28T00:54:39.172Z,20.27
2018-09-28T00:57:07.412Z,20.10
2018-09-28T00:59:35.660Z,20.50
2018-09-28T01:02:03.960Z,19.53
2018-09-28T01:04:32.196Z,19.30
2018-09-28T01:07:00.407Z,19.53
2018-09-28T01:09:28.648Z,21.40
2018-09-28T01:11:56.871Z,20.67
2018-09-28T01:14:25.830Z,22.93
2018-09-28T01:16:54.838Z,21.50
2018-09-28T01:19:23.069Z,20.10
2018-09-28T01:21:51.319Z,21.20
2018-09-28T01:24:19.550Z,20.70
2018-09-28T01:26:47.750Z,19.27
2018-09-28T01:29:16.000Z,21.47
2018-09-28T01:31:44.195Z,21.70
2018-09-28T01:34:12.552Z,22.10
2018-09-28T01:36:40.743Z,22.20
2018-09-28T01:39:09.788Z,21.50
2018-09-28T01:41:38.032Z,21.17
2018-09-28T01:44:06.263Z,21.13
2018-09-28T01:46:34.480Z,21.70
2018-09-28T01:49:02.728Z,22.20
2018-09-28T01:51:31.035Z,23.37
2018-09-28T01:53:59.242Z,22.60
2018-09-28T01:56:27.479Z,20.40
2018-09-28T01:58:55.679Z,21.00
2018-09-28T02:01:24.087Z,22.93
2018-09-28T02:03:52.475Z,23.03
2018-09-28T02:06:20.707Z,21.37
2018-09-28T02:08:48.940Z,21.43
2018-09-28T02:11:17.158Z,22.30
2018-09-28T02:13:45.406Z,22.37
2018-09-28T02:16:13.671Z,24.67
2018-09-28T02:18:41.899Z,22.73
2018-09-28T02:21:10.130Z,22.10
2018-09-28T02:23:38.332Z,23.60
2018-09-28T02:26:06.596Z,21.57
2018-09-28T02:28:34.836Z,23.97
2018-09-28T02:31:03.053Z,23.43
2018-09-28T02:33:31.400Z,23.10
2018-09-28T02:35:59.607Z,24.87
2018-09-28T02:38:27.831Z,23.40
2018-09-28T02:40:56.039Z,24.03
2018-09-28T02:43:24.291Z,23.20
2018-09-28T02:45:52.512Z,23.40
2018-09-28T02:48:20.742Z,25.17
2018-09-28T02:50:48.918Z,24.57
2018-09-28T02:53:18.630Z,24.00
2018-09-28T02:55:48.315Z,25.40
2018-09-28T02:58:16.568Z,23.93
2018-09-28T03:00:45.581Z,26.50
2018-09-28T03:03:13.827Z,23.60
2018-09-28T03:05:42.051Z,23.40
2018-09-28T03:08:11.153Z,26.27
2018-09-28T03:10:39.380Z,26.67
2018-09-28T03:13:07.822Z,25.27
2018-09-28T03:15:36.500Z,26.80
2018-09-28T03:18:04.719Z,26.60
2018-09-28T03:20:32.960Z,28.20
2018-09-28T03:23:01.167Z,27.23
2018-09-28T03:25:29.576Z,29.20
2018-09-28T03:27:57.845Z,28.40
2018-09-28T03:30:26.071Z,28.30
2018-09-28T03:32:54.341Z,30.77
2018-09-28T03:35:22.541Z,29.53
2018-09-28T03:37:51.226Z,30.33
2018-09-28T03:40:19.431Z,29.53
2018-09-28T03:42:47.664Z,28.23
2018-09-28T03:45:15.921Z,30.70
2018-09-28T03:47:46.575Z,28.53
2018-09-28T03:50:14.803Z,30.40
2018-09-28T03:52:43.026Z,29.67
2018-09-28T03:55:11.606Z,30.97
2018-09-28T03:57:39.807Z,34.23
2018-09-28T04:00:09.070Z,33.03
2018-09-28T04:02:37.430Z,31.13
2018-09-28T04:05:05.664Z,31.00
2018-09-28T04:07:33.990Z,30.30
2018-09-28T04:10:02.431Z,31.50
2018-09-28T04:12:30.671Z,29.00
2018-09-28T04:14:58.900Z,31.93
2018-09-28T04:17:27.298Z,31.40
2018-09-28T04:19:55.523Z,30.50
2018-09-28T04:22:23.747Z,30.47
2018-09-28T04:24:52.103Z,30.20
2018-09-28T04:27:20.343Z,29.97
2018-09-28T04:29:48.534Z,30.77
2018-09-28T04:32:16.760Z,29.27
2018-09-28T04:34:45.051Z,28.63
2018-09-28T04:37:13.280Z,28.93
2018-09-28T04:39:41.524Z,30.67
2018-09-28T04:42:09.862Z,29.50
2018-09-28T04:44:38.104Z,28.60
2018-09-28T04:47:06.720Z,26.43
2018-09-28T04:49:34.951Z,26.60
2018-09-28T04:52:03.204Z,28.23
2018-09-28T04:54:31.488Z,27.90
2018-09-28T04:56:59.704Z,26.57
2018-09-28T04:59:27.924Z,26.60
2018-09-28T05:01:56.176Z,28.40
2018-09-28T05:04:24.387Z,25.60
2018-09-28T05:06:52.604Z,25.27
2018-09-28T05:09:20.860Z,24.53
2018-09-28T05:11:49.451Z,25.03
2018-09-28T05:14:17.672Z,25.30
2018-09-28T05:16:45.872Z,25.83
2018-09-28T05:19:14.112Z,25.40
2018-09-28T05:21:42.342Z,23.43
2018-09-28T05:24:10.639Z,23.30
2018-09-28T05:26:38.895Z,23.00
2018-09-28T05:29:07.114Z,22.43
2018-09-28T05:31:35.397Z,20.27
2018-09-28T05:34:03.610Z,17.40
2018-09-28T05:36:31.878Z,16.00
2018-09-28T05:39:00.136Z,14.20
2018-09-28T05:41:28.318Z,12.37
2018-09-28T05:43:56.567Z,11.30
2018-09-28T05:46:24.786Z,10.93
2018-09-28T05:48:53.015Z,6.70
2018-09-28T05:51:21.671Z,7.40
2018-09-28T05:53:49.958Z,5.17
2018-09-28T05:56:18.228Z,5.40
2018-09-28T05:58:58.449Z,4.90
2018-09-28T06:01:31.991Z,4.60
2018-09-28T06:10:00.462Z,3.40
2018-09-28T06:12:28.661Z,2.80
2018-09-28T06:14:58.099Z,3.07
2018-09-28T06:17:26.323Z,2.37
2018-09-28T06:19:54.607Z,2.60
2018-09-28T06:22:22.845Z,2.27
2018-09-28T06:24:51.057Z,2.10
2018-09-28T06:27:19.279Z,1.90
2018-09-28T06:29:47.591Z,2.10
2018-09-28T06:32:15.848Z,3.00
2018-09-28T06:34:44.100Z,2.47
2018-09-28T06:37:12.331Z,2.83
2018-09-28T06:39:40.829Z,2.70
2018-09-28T06:42:09.039Z,2.20
2018-09-28T06:44:37.507Z,2.90
2018-09-28T06:47:05.647Z,2.70
2018-09-28T06:49:34.262Z,2.30
2018-09-28T06:52:02.468Z,2.43
2018-09-28T06:54:31.088Z,2.80
2018-09-28T06:56:59.295Z,2.30
2018-09-28T06:59:27.533Z,2.93
2018-09-28T07:01:55.894Z,1.87
2018-09-28T07:04:24.250Z,2.33
2018-09-28T07:06:52.469Z,2.00
2018-09-28T07:09:20.698Z,3.07
2018-09-28T07:11:48.961Z,3.07
2018-09-28T07:14:17.372Z,2.83
2018-09-28T07:16:45.603Z,2.70
2018-09-28T07:19:13.804Z,1.80
2018-09-28T07:21:42.048Z,2.60
2018-09-28T07:24:10.360Z,1.80
2018-09-28T07:26:38.538Z,2.03
2018-09-28T07:29:06.760Z,2.50
2018-09-28T07:31:35.023Z,2.50
2018-09-28T07:34:03.247Z,3.50
2018-09-28T07:36:31.591Z,2.90
2018-09-28T07:38:59.695Z,1.97
2018-09-28T07:41:27.928Z,2.00
2018-09-28T07:43:56.296Z,2.27
2018-09-28T07:46:24.576Z,2.83
2018-09-28T07:48:52.827Z,2.73
2018-09-28T07:51:21.033Z,2.57
2018-09-28T07:53:49.291Z,2.90
2018-09-28T07:56:17.622Z,2.57
2018-09-28T07:58:45.836Z,2.70
2018-09-28T08:01:14.123Z,2.87
2018-09-28T08:03:42.326Z,3.17
2018-09-28T08:06:10.567Z,2.60
2018-09-28T08:08:38.916Z,2.90
2018-09-28T08:11:07.378Z,2.57
2018-09-28T08:13:35.677Z,2.83
2018-09-28T08:16:03.920Z,3.07
2018-09-28T08:18:32.109Z,2.70
2018-09-28T08:21:00.376Z,3.60
2018-09-28T08:23:28.605Z,2.43
2018-09-28T08:25:56.815Z,2.00
2018-09-28T08:28:25.142Z,3.03
2018-09-28T08:30:53.374Z,2.50
2018-09-28T08:33:21.614Z,2.17
2018-09-28T08:35:49.799Z,2.50
2018-09-28T08:38:18.275Z,2.33
2018-09-28T08:40:46.469Z,2.70
2018-09-28T08:43:14.687Z,3.53
2018-09-28T08:45:42.908Z,3.27
2018-09-28T08:48:11.128Z,2.20
2018-09-28T08:50:39.336Z,2.50
2018-09-28T08:53:07.631Z,3.10
2018-09-28T08:55:35.847Z,2.53
2018-09-28T08:58:04.364Z,2.30
2018-09-28T09:00:32.620Z,1.73
2018-09-28T09:03:00.830Z,2.30
2018-09-28T09:05:29.244Z,3.17
2018-09-28T09:07:57.492Z,2.60
2018-09-28T09:10:25.694Z,2.40
2018-09-28T09:12:53.972Z,1.93
2018-09-28T09:15:22.212Z,3.20
2018-09-28T09:17:50.468Z,2.93
2018-09-28T09:20:18.691Z,3.30
2018-09-28T09:22:47.111Z,2.70
2018-09-28T09:25:15.352Z,2.30
2018-09-28T09:27:43.604Z,2.50
2018-09-28T09:30:11.887Z,4.30
2018-09-28T09:32:40.044Z,2.30
2018-09-28T09:35:08.372Z,2.43
2018-09-28T09:37:36.571Z,2.37
2018-09-28T09:40:04.881Z,3.17
2018-09-28T09:42:33.110Z,1.97
2018-09-28T09:45:01.321Z,2.30
2018-09-28T09:47:29.543Z,2.37
2018-09-28T09:49:57.740Z,2.20
2018-09-28T09:52:25.988Z,2.57
2018-09-28T09:54:54.243Z,3.20
2018-09-28T09:57:22.476Z,2.40
2018-09-28T09:59:50.715Z,2.50
2018-09-28T10:02:30.900Z,2.10
2018-09-28T10:04:59.111Z,2.63
2018-09-28T10:07:27.339Z,2.17
2018-09-28T10:09:55.610Z,3.40
2018-09-28T10:12:23.929Z,2.87
2018-09-28T10:14:52.151Z,2.50
2018-09-28T10:17:20.415Z,2.53
2018-09-28T10:19:48.717Z,2.50
2018-09-28T10:22:16.853Z,1.80
2018-09-28T10:24:45.166Z,2.30
2018-09-28T10:27:13.449Z,2.03
2018-09-28T10:29:41.654Z,2.63
2018-09-28T10:32:09.903Z,2.00
2018-09-28T10:34:38.179Z,2.53
2018-09-28T10:37:06.368Z,1.90
2018-09-28T10:39:34.615Z,2.10
2018-09-28T10:42:02.811Z,2.40
2018-09-28T10:44:31.043Z,2.70
2018-09-28T10:46:59.283Z,2.50
2018-09-28T10:49:27.560Z,2.30
2018-09-28T10:51:55.809Z,2.07
2018-09-28T10:54:24.095Z,1.50
2018-09-28T10:56:52.309Z,2.37
2018-09-28T10:59:20.614Z,2.03
2018-09-28T11:01:48.866Z,1.50
2018-09-28T11:04:17.069Z,1.40
2018-09-28T11:06:45.314Z,1.93
2018-09-28T11:09:13.697Z,2.33
2018-09-28T11:11:42.380Z,1.47
2018-09-28T11:14:10.698Z,1.60
2018-09-28T11:16:39.367Z,1.40
2018-09-28T11:19:07.597Z,1.57
2018-09-28T11:21:35.860Z,1.87
2018-09-28T11:24:04.248Z,1.63
2018-09-28T11:26:32.485Z,1.90
2018-09-28T11:29:00.738Z,2.07
2018-09-28T11:31:29.024Z,1.40
2018-09-28T11:33:57.278Z,1.90
2018-09-28T11:36:25.471Z,1.47
2018-09-28T11:38:53.700Z,1.50
2018-09-28T11:41:21.908Z,1.90
2018-09-28T11:43:50.151Z,1.90
2018-09-28T11:46:18.401Z,1.73
2018-09-28T11:48:46.656Z,1.93
2018-09-28T11:51:14.929Z,2.27
2018-09-28T11:53:43.128Z,1.90
2018-09-28T11:56:11.331Z,1.80
2018-09-28T11:58:39.576Z,2.07
2018-09-28T12:01:07.875Z,1.60
2018-09-28T12:03:36.134Z,1.33
2018-09-28T12:06:04.445Z,2.10
2018-09-28T12:08:32.740Z,2.07
2018-09-28T12:11:01.018Z,2.50
2018-09-28T12:13:29.278Z,2.20
2018-09-28T12:15:57.444Z,1.10
2018-09-28T12:18:25.972Z,2.10
2018-09-28T12:20:54.119Z,2.23
2018-09-28T12:23:22.373Z,2.07
2018-09-28T12:25:50.607Z,2.00
2018-09-28T12:28:18.828Z,1.57
2018-09-28T12:30:47.145Z,1.30
2018-09-28T12:33:15.354Z,1.00
2018-09-28T12:35:43.626Z,1.60
2018-09-28T12:38:11.786Z,2.17
2018-09-28T12:40:39.983Z,1.57
2018-09-28T12:43:08.391Z,1.50
2018-09-28T12:45:36.780Z,2.03
2018-09-28T12:48:04.955Z,1.37
2018-09-28T12:50:33.246Z,1.10
2018-09-28T12:53:01.399Z,1.73
2018-09-28T12:55:29.611Z,1.60
2018-09-28T12:57:57.832Z,1.80
2018-09-28T13:00:26.104Z,2.20
2018-09-28T13:02:54.304Z,1.80
2018-09-28T13:05:22.629Z,1.57
2018-09-28T13:07:50.868Z,1.77
2018-09-28T13:10:19.090Z,1.47
2018-09-28T13:12:47.352Z,1.93
2018-09-28T13:15:15.840Z,0.70
2018-09-28T13:17:50.559Z,1.90
2018-09-28T13:20:18.813Z,1.20
2018-09-28T13:22:46.983Z,2.27
2018-09-28T13:25:15.216Z,1.53
2018-09-28T13:27:43.464Z,1.63
2018-09-28T13:30:11.758Z,1.90
2018-09-28T13:32:39.998Z,1.90
2018-09-28T13:35:08.239Z,2.27
2018-09-28T13:37:36.469Z,1.67
2018-09-28T13:40:04.863Z,1.83
2018-09-28T13:42:33.084Z,1.93
2018-09-28T13:45:01.378Z,1.50
2018-09-28T13:47:29.539Z,1.50
2018-09-28T13:49:57.798Z,1.60
2018-09-28T13:52:26.058Z,2.67
2018-09-28T13:54:54.283Z,1.30
2018-09-28T13:57:22.479Z,2.03
2018-09-28T13:59:50.751Z,1.57
2018-09-28T14:02:19.020Z,1.47
2018-09-28T14:04:47.281Z,1.37
2018-09-28T14:07:15.712Z,1.63
2018-09-28T14:09:43.760Z,1.70
2018-09-28T14:12:12.058Z,1.77
2018-09-28T14:14:40.243Z,1.37
2018-09-28T14:17:08.460Z,1.90
2018-09-28T14:19:36.727Z,1.30
2018-09-28T14:22:04.947Z,1.90
2018-09-28T14:24:33.181Z,1.57
2018-09-28T14:27:01.428Z,1.73
2018-09-28T14:29:29.636Z,1.50
2018-09-28T14:31:57.927Z,1.00
2018-09-28T14:34:26.202Z,1.00
2018-09-28T14:36:54.388Z,1.10
2018-09-28T14:39:22.626Z,1.10
2018-09-28T14:41:50.899Z,1.70
2018-09-28T14:44:19.149Z,1.40
2018-09-28T14:46:47.375Z,1.50
2018-09-28T14:49:15.601Z,1.50
2018-09-28T14:51:43.759Z,1.50
2018-09-28T14:54:12.122Z,2.10
2018-09-28T14:56:40.350Z,1.50
2018-09-28T14:59:08.532Z,1.27
2018-09-28T15:01:36.751Z,1.73
2018-09-28T15:04:05.174Z,1.80
2018-09-28T15:06:33.411Z,1.40
2018-09-28T15:09:01.588Z,1.60
2018-09-28T15:11:29.855Z,1.03
2018-09-28T15:13:58.109Z,1.53
2018-09-28T15:16:26.418Z,1.80
2018-09-28T15:18:54.602Z,1.23
2018-09-28T15:21:22.828Z,1.90
2018-09-28T15:23:51.067Z,2.00
2018-09-28T15:26:19.303Z,1.60
2018-09-28T15:28:47.505Z,1.70
2018-09-28T15:31:15.747Z,1.23
2018-09-28T15:33:44.007Z,1.33
2018-09-28T15:36:12.259Z,1.30
2018-09-28T15:38:40.517Z,1.30
2018-09-28T15:41:08.771Z,1.70
2018-09-28T15:43:37.271Z,1.27
2018-09-28T15:46:05.479Z,1.37
2018-09-28T15:48:33.705Z,1.17
2018-09-28T15:51:01.947Z,1.90
2018-09-28T15:53:30.204Z,1.70
2018-09-28T15:55:58.442Z,1.33
2018-09-28T15:58:26.711Z,1.70
2018-09-28T16:00:54.935Z,1.30
2018-09-28T16:03:23.367Z,1.43
2018-09-28T16:05:51.576Z,1.60
2018-09-28T16:08:19.809Z,1.97
2018-09-28T16:10:48.281Z,1.50
2018-09-28T16:13:16.572Z,1.57
2018-09-28T16:15:44.823Z,1.20
2018-09-28T16:18:13.040Z,1.80
2018-09-28T16:20:41.225Z,1.80
2018-09-28T16:23:09.491Z,1.80
2018-09-28T16:25:37.811Z,1.90
2018-09-28T16:28:06.083Z,2.00
2018-09-28T16:30:34.307Z,1.40
2018-09-28T16:33:07.450Z,1.43
2018-09-28T16:35:35.675Z,1.70
2018-09-28T16:38:04.025Z,2.20
2018-09-28T16:40:32.237Z,2.00
2018-09-28T16:43:00.521Z,1.63
2018-09-28T16:45:28.758Z,1.33
2018-09-28T16:47:56.991Z,1.90
2018-09-28T16:50:25.226Z,1.30
2018-09-28T16:52:53.472Z,1.30
2018-09-28T16:57:56.498Z,1.40
2018-09-28T17:00:24.705Z,1.87
2018-09-28T17:02:53.012Z,2.07
2018-09-28T17:05:21.312Z,1.70
2018-09-28T17:07:49.503Z,1.80
2018-09-28T17:10:17.727Z,1.77
2018-09-28T17:12:45.971Z,1.80
2018-09-28T17:15:14.239Z,3.50
2018-09-28T17:17:42.503Z,1.57
2018-09-28T17:20:11.626Z,2.70
2018-09-28T17:22:45.330Z,13.87
2018-09-28T17:25:13.754Z,3.37
2018-09-28T17:27:42.080Z,16.40
2018-09-28T17:30:10.312Z,9.70
2018-09-28T17:32:38.548Z,2.30
2018-09-28T17:35:06.818Z,5.20
2018-09-28T17:37:35.091Z,1.70
2018-09-28T17:40:03.315Z,1.77
2018-09-28T17:42:31.607Z,1.80
2018-09-28T17:44:59.816Z,1.40
2018-09-28T17:47:28.051Z,1.50
2018-09-28T17:49:56.275Z,1.67
2018-09-28T17:52:24.538Z,2.60
2018-09-28T17:54:52.809Z,2.53
2018-09-28T17:57:21.055Z,2.00
2018-09-28T17:59:49.349Z,1.70
2018-09-28T18:02:17.617Z,1.93
2018-09-28T18:04:45.832Z,2.00
2018-09-28T18:07:14.070Z,1.17
2018-09-28T18:09:42.283Z,1.83
2018-09-28T18:12:10.490Z,2.23
2018-09-28T18:14:38.714Z,2.07
2018-09-28T18:17:06.936Z,2.40
2018-09-28T18:19:35.147Z,1.70
2018-09-28T18:22:03.466Z,1.60
2018-09-28T18:24:31.726Z,1.67
2018-09-28T18:26:59.925Z,2.47
2018-09-28T18:29:28.131Z,2.93
2018-09-28T18:31:56.363Z,3.47
2018-09-28T18:34:24.675Z,3.77
2018-09-28T18:36:52.962Z,2.20
2018-09-28T18:39:21.207Z,2.47
2018-09-28T18:41:49.404Z,1.77
2018-09-28T18:44:17.634Z,2.57
2018-09-28T18:46:45.886Z,2.80
2018-09-28T18:49:14.169Z,1.97
2018-09-28T18:51:42.390Z,1.93
2018-09-28T18:54:10.698Z,1.57
2018-09-28T18:56:38.995Z,1.90
2018-09-28T18:59:07.391Z,2.20
2018-09-28T19:01:35.560Z,2.50
2018-09-28T19:04:03.974Z,2.90
2018-09-28T19:06:32.187Z,3.10
2018-09-28T19:09:00.375Z,2.40
2018-09-28T19:11:28.769Z,2.10
2018-09-28T19:13:57.029Z,3.77
2018-09-28T19:16:25.244Z,2.17
2018-09-28T19:18:54.423Z,2.30
2018-09-28T19:21:22.701Z,2.50
2018-09-28T19:23:51.206Z,2.93
2018-09-28T19:26:19.886Z,2.67
2018-09-28T19:28:48.287Z,2.30
2018-09-28T19:31:16.854Z,2.83
2018-09-28T19:33:45.078Z,2.20
2018-09-28T19:36:13.403Z,2.40
2018-09-28T19:38:41.760Z,1.90
2018-09-28T19:41:10.011Z,2.67
2018-09-28T19:43:38.694Z,2.37
2018-09-28T19:46:07.203Z,2.77
2018-09-28T19:48:35.670Z,2.10
2018-09-28T19:51:03.948Z,2.63
2018-09-28T19:53:32.646Z,2.53
2018-09-28T19:56:01.763Z,2.10
2018-09-28T19:58:30.112Z,2.10
2018-09-28T20:00:58.515Z,3.10
2018-09-28T20:03:26.930Z,2.30
2018-09-28T20:05:55.115Z,2.70
2018-09-28T20:08:24.634Z,2.17
2018-09-28T20:10:53.407Z,3.17
2018-09-28T20:13:22.419Z,3.70
2018-09-28T20:15:51.303Z,2.67
2018-09-28T20:18:20.064Z,3.80
2018-09-28T20:20:49.606Z,2.70
2018-09-28T20:23:19.347Z,3.60
2018-09-28T20:25:48.428Z,2.43
2018-09-28T20:28:17.308Z,3.00
2018-09-28T20:30:45.755Z,2.50
2018-09-28T20:33:14.414Z,2.37
2018-09-28T20:35:42.794Z,2.90
2018-09-28T20:38:11.305Z,3.27
2018-09-28T20:40:40.286Z,2.83
2018-09-28T20:43:08.642Z,2.60
2018-09-28T20:45:38.695Z,2.50
2018-09-28T20:48:07.363Z,2.60
2018-09-28T20:50:35.888Z,2.27
2018-09-28T20:53:04.330Z,3.17
2018-09-28T20:55:32.600Z,3.00
2018-09-28T20:58:01.060Z,3.00
2018-09-28T21:00:29.386Z,2.70
2018-09-28T21:02:57.678Z,2.93
2018-09-28T21:05:25.935Z,2.50
2018-09-28T21:07:54.153Z,2.60
2018-09-28T21:10:22.356Z,2.30
2018-09-28T21:12:50.551Z,2.70
2018-09-28T21:15:18.926Z,2.40
2018-09-28T21:17:48.070Z,2.60
2018-09-28T21:20:16.299Z,3.30
2018-09-28T21:22:44.550Z,2.97
2018-09-28T21:25:12.763Z,2.90
2018-09-28T21:27:40.995Z,2.57
2018-09-28T21:30:09.211Z,2.80
2018-09-28T21:32:37.427Z,2.63
2018-09-28T21:35:05.666Z,1.97
2018-09-28T21:37:33.874Z,2.73
2018-09-28T21:40:02.454Z,2.83
2018-09-28T21:42:30.665Z,2.73
2018-09-28T21:44:59.071Z,2.70
2018-09-28T21:47:27.295Z,2.30
2018-09-28T21:49:55.647Z,2.50
2018-09-28T21:52:24.013Z,2.90
2018-09-28T21:54:52.216Z,2.87
2018-09-28T21:57:20.452Z,2.50
2018-09-28T21:59:48.740Z,2.13
2018-09-28T22:02:16.952Z,2.83
2018-09-28T22:04:45.283Z,3.10
2018-09-28T22:07:13.490Z,2.90
2018-09-28T22:09:41.712Z,2.00
2018-09-28T22:12:09.936Z,2.40
2018-09-28T22:14:38.243Z,2.80
2018-09-28T22:17:06.429Z,2.37
2018-09-28T22:19:34.622Z,2.73
2018-09-28T22:22:02.855Z,2.73
2018-09-28T22:24:31.101Z,3.60
2018-09-28T22:26:59.364Z,3.30
2018-09-28T22:29:27.576Z,2.87
2018-09-28T22:31:56.896Z,2.37
2018-09-28T22:34:25.199Z,2.50
2018-09-28T22:36:53.444Z,2.23
2018-09-28T22:39:21.631Z,3.37
2018-09-28T22:41:49.883Z,2.40
2018-09-28T22:44:19.177Z,2.40
2018-09-28T22:46:47.447Z,1.80
2018-09-28T22:49:15.637Z,2.33
2018-09-28T22:51:43.945Z,2.23
2018-09-28T22:54:12.151Z,2.40
2018-09-28T22:56:40.370Z,2.37
2018-09-28T22:59:08.566Z,2.67
2018-09-28T23:01:38.275Z,2.33
2018-09-28T23:04:06.803Z,2.33
2018-09-28T23:06:35.053Z,2.47
2018-09-28T23:09:03.376Z,3.03
2018-09-28T23:11:31.578Z,2.87
2018-09-28T23:13:59.947Z,2.13
2018-09-28T23:16:28.192Z,2.27
2018-09-28T23:18:56.503Z,2.50
2018-09-28T23:21:24.756Z,2.47
2018-09-28T23:23:53.601Z,2.50
2018-09-28T23:26:21.866Z,2.10
2018-09-28T23:28:50.076Z,2.20
2018-09-28T23:31:18.297Z,3.80
2018-09-28T23:33:46.542Z,2.90
2018-09-28T23:36:15.015Z,2.30
2018-09-28T23:38:43.291Z,1.87
2018-09-28T23:41:11.517Z,2.40
2018-09-28T23:43:39.788Z,2.30
2018-09-28T23:46:07.992Z,1.87
2018-09-28T23:48:36.256Z,1.90
2018-09-28T23:51:04.608Z,4.20
2018-09-28T23:53:32.824Z,2.30
2018-09-28T23:56:01.047Z,2.63
2018-09-28T23:58:29.271Z,2.10
